Time;durP1;ratioP1;P1;durP2;ratioP2;P2;SDS_P1;SDS_P2;PMS_P1;PMS_P2;Temp;Humidity;BMP_temperature;BMP_pressure;BME280_temperature;BME280_humidity;BME280_pressure;Samples;Min_cycle;Max_cycle;Signal;HPM_P1;HPM_P2
2023/07/13 00:00:22;;;;;;;2.67;1.53;;;;;;;;;;5052023;28;20193;-77
2023/07/13 00:02:48;;;;;;;2.63;1.30;;;;;;;;;;5052250;28;20226;-77
2023/07/13 00:05:14;;;;;;;3.43;1.87;;;;;;;;;;5051763;28;20189;-77
2023/07/13 00:07:40;;;;;;;3.00;1.50;;;;;;;;;;5051820;28;20657;-77
2023/07/13 00:10:08;;;;;;;2.03;1.57;;;;;;;;;;5052205;28;20182;-77
2023/07/13 00:12:37;;;;;;;4.17;1.30;;;;;;;;;;5035304;28;20179;-79
2023/07/13 00:15:07;;;;;;;1.57;1.40;;;;;;;;;;5030813;28;20209;-80
2023/07/13 00:17:33;;;;;;;2.23;1.60;;;;;;;;;;5031937;28;20182;-77
2023/07/13 00:19:59;;;;;;;2.20;1.47;;;;;;;;;;5031813;28;20173;-77
2023/07/13 00:22:26;;;;;;;4.10;1.60;;;;;;;;;;5031722;28;20542;-77
2023/07/13 00:24:53;;;;;;;5.37;1.60;;;;;;;;;;5046984;28;20569;-77
2023/07/13 00:27:19;;;;;;;4.10;1.80;;;;;;;;;;5049989;28;20174;-77
2023/07/13 00:29:46;;;;;;;3.53;1.77;;;;;;;;;;5034047;28;20182;-77
2023/07/13 00:32:12;;;;;;;3.57;1.53;;;;;;;;;;5046093;28;20193;-77
2023/07/13 00:34:39;;;;;;;3.60;1.80;;;;;;;;;;5045517;28;20198;-80
2023/07/13 00:37:09;;;;;;;3.87;1.63;;;;;;;;;;5046875;28;20185;-77
2023/07/13 00:39:35;;;;;;;2.30;1.80;;;;;;;;;;5048105;28;20178;-79
2023/07/13 00:42:04;;;;;;;3.53;1.40;;;;;;;;;;5051298;28;20599;-77
2023/07/13 00:44:30;;;;;;;2.40;1.63;;;;;;;;;;5040870;28;20303;-77
2023/07/13 00:46:58;;;;;;;1.70;1.60;;;;;;;;;;5031740;28;20171;-77
2023/07/13 00:49:26;;;;;;;2.07;1.43;;;;;;;;;;5030330;28;20171;-77
2023/07/13 00:51:54;;;;;;;3.33;1.60;;;;;;;;;;5049051;28;20288;-77
2023/07/13 00:54:23;;;;;;;2.80;1.50;;;;;;;;;;5050944;28;20673;-77
2023/07/13 00:56:50;;;;;;;2.60;1.53;;;;;;;;;;5049831;28;20265;-77
2023/07/13 00:59:18;;;;;;;3.90;1.80;;;;;;;;;;5033832;28;20177;-77
2023/07/13 01:01:46;;;;;;;3.80;1.60;;;;;;;;;;5042532;28;20202;-79
2023/07/13 01:04:12;;;;;;;1.63;1.40;;;;;;;;;;5048909;28;20205;-77
2023/07/13 01:06:40;;;;;;;4.30;1.70;;;;;;;;;;5049669;28;20166;-77
2023/07/13 01:09:07;;;;;;;2.67;1.67;;;;;;;;;;5040666;28;20261;-79
2023/07/13 01:11:33;;;;;;;3.37;1.60;;;;;;;;;;5051627;28;20182;-76
2023/07/13 01:14:01;;;;;;;2.00;1.70;;;;;;;;;;5049478;28;20205;-77
2023/07/13 01:16:31;;;;;;;3.17;1.60;;;;;;;;;;5031703;28;20186;-76
2023/07/13 01:18:58;;;;;;;2.40;1.63;;;;;;;;;;5030967;28;20185;-76
2023/07/13 01:21:25;;;;;;;3.13;1.90;;;;;;;;;;5031033;28;20214;-77
2023/07/13 01:23:51;;;;;;;3.73;1.73;;;;;;;;;;5030790;28;20198;-77
2023/07/13 01:26:18;;;;;;;3.30;1.70;;;;;;;;;;5030637;28;20175;-77
2023/07/13 01:28:44;;;;;;;3.50;1.70;;;;;;;;;;5030908;28;20179;-77
2023/07/13 01:31:10;;;;;;;2.03;1.70;;;;;;;;;;5046357;28;20186;-77
2023/07/13 01:33:40;;;;;;;4.27;1.77;;;;;;;;;;5050942;28;20190;-78
2023/07/13 01:36:10;;;;;;;2.27;1.80;;;;;;;;;;5050274;28;20193;-77
2023/07/13 01:38:37;;;;;;;4.40;1.60;;;;;;;;;;5030483;28;20265;-77
2023/07/13 01:41:04;;;;;;;2.00;1.60;;;;;;;;;;5040781;28;20542;-77
2023/07/13 01:43:30;;;;;;;2.97;1.60;;;;;;;;;;5050746;28;20181;-77
2023/07/13 01:45:56;;;;;;;4.80;1.90;;;;;;;;;;5050308;28;20321;-77
2023/07/13 01:48:22;;;;;;;3.20;1.87;;;;;;;;;;5050497;28;20190;-77
2023/07/13 01:50:49;;;;;;;5.40;1.80;;;;;;;;;;5043568;28;20524;-77
2023/07/13 01:53:15;;;;;;;2.87;1.80;;;;;;;;;;5029572;28;20248;-77
2023/07/13 01:55:42;;;;;;;2.50;1.60;;;;;;;;;;5030227;28;20692;-79
2023/07/13 01:58:08;;;;;;;3.40;1.60;;;;;;;;;;5046261;28;20174;-76
2023/07/13 02:00:34;;;;;;;2.30;1.63;;;;;;;;;;5032420;28;20257;-77
2023/07/13 02:03:02;;;;;;;2.20;1.63;;;;;;;;;;5049843;28;20178;-77
2023/07/13 02:05:28;;;;;;;2.40;1.80;;;;;;;;;;5034761;28;20230;-77
2023/07/13 02:07:54;;;;;;;3.07;1.90;;;;;;;;;;5030512;28;20170;-77
2023/07/13 02:10:20;;;;;;;3.00;1.80;;;;;;;;;;5029481;28;20182;-76
2023/07/13 02:12:46;;;;;;;3.00;2.10;;;;;;;;;;5030077;28;20246;-77
2023/07/13 02:15:12;;;;;;;2.60;2.20;;;;;;;;;;5051591;28;20255;-77
2023/07/13 02:17:39;;;;;;;2.00;1.80;;;;;;;;;;5053424;28;20174;-77
2023/07/13 02:20:06;;;;;;;2.93;1.70;;;;;;;;;;5052604;28;20174;-77
2023/07/13 02:22:32;;;;;;;2.77;1.87;;;;;;;;;;5052557;28;20170;-79
2023/07/13 02:24:58;;;;;;;4.90;2.10;;;;;;;;;;5053736;28;20197;-77
2023/07/13 02:27:25;;;;;;;7.33;2.00;;;;;;;;;;5053730;28;20185;-77
2023/07/13 02:29:51;;;;;;;4.30;1.97;;;;;;;;;;5043317;28;20186;-77
2023/07/13 02:32:18;;;;;;;2.77;1.80;;;;;;;;;;5035341;28;20256;-79
2023/07/13 02:34:45;;;;;;;2.77;1.90;;;;;;;;;;5043868;28;20263;-77
2023/07/13 02:37:11;;;;;;;4.30;2.00;;;;;;;;;;5053344;28;20645;-77
2023/07/13 02:39:38;;;;;;;4.50;2.07;;;;;;;;;;5038462;28;20192;-76
2023/07/13 02:42:04;;;;;;;2.90;1.73;;;;;;;;;;5032746;28;20341;-78
2023/07/13 02:44:30;;;;;;;3.40;2.03;;;;;;;;;;5013343;28;20210;-76
2023/07/13 02:46:56;;;;;;;3.83;1.97;;;;;;;;;;5039858;28;20653;-77
2023/07/13 02:49:22;;;;;;;2.87;2.03;;;;;;;;;;5032386;28;20179;-76
2023/07/13 02:51:49;;;;;;;4.00;1.90;;;;;;;;;;5039185;28;20268;-76
2023/07/13 02:54:15;;;;;;;2.87;1.90;;;;;;;;;;5035468;28;20202;-79
2023/07/13 02:56:43;;;;;;;2.40;1.90;;;;;;;;;;5051862;28;20227;-77
2023/07/13 02:59:10;;;;;;;2.20;1.87;;;;;;;;;;5045553;28;20207;-79
2023/07/13 03:01:36;;;;;;;4.50;2.00;;;;;;;;;;5043776;28;20616;-76
2023/07/13 03:04:03;;;;;;;2.40;1.80;;;;;;;;;;5035480;28;20202;-77
2023/07/13 03:06:32;;;;;;;4.67;2.10;;;;;;;;;;5031534;28;20178;-77
2023/07/13 03:08:59;;;;;;;2.03;1.80;;;;;;;;;;5031878;28;20175;-77
2023/07/13 03:11:26;;;;;;;3.33;2.07;;;;;;;;;;5015581;28;20210;-77
2023/07/13 03:14:10;;;;;;;5.03;2.20;;;;;;;;;;5039956;28;20682;-77
2023/07/13 03:16:38;;;;;;;2.87;1.90;;;;;;;;;;5031406;28;20824;-77
2023/07/13 03:19:04;;;;;;;2.27;2.07;;;;;;;;;;5031675;28;20201;-77
2023/07/13 03:21:30;;;;;;;4.10;2.20;;;;;;;;;;5039737;28;20237;-77
2023/07/13 03:23:56;;;;;;;5.53;2.40;;;;;;;;;;5050554;28;20759;-76
2023/07/13 03:26:23;;;;;;;3.87;2.30;;;;;;;;;;5032412;28;20654;-76
2023/07/13 03:28:49;;;;;;;3.53;1.87;;;;;;;;;;5043411;28;20254;-77
2023/07/13 03:31:21;;;;;;;3.50;2.10;;;;;;;;;;5051386;28;20253;-76
2023/07/13 03:33:47;;;;;;;3.67;2.00;;;;;;;;;;5051145;28;20236;-76
2023/07/13 03:36:19;;;;;;;3.13;2.10;;;;;;;;;;5050928;28;20630;-76
2023/07/13 03:38:47;;;;;;;3.73;2.20;;;;;;;;;;5051385;28;20162;-77
2023/07/13 03:41:14;;;;;;;3.60;2.00;;;;;;;;;;5051499;28;20343;-76
2023/07/13 03:43:41;;;;;;;3.60;2.00;;;;;;;;;;5051100;28;20209;-77
2023/07/13 03:46:07;;;;;;;3.93;2.10;;;;;;;;;;5051938;28;20170;-78
2023/07/13 03:48:33;;;;;;;2.73;1.93;;;;;;;;;;5051254;28;20615;-78
2023/07/13 03:51:00;;;;;;;3.50;2.20;;;;;;;;;;5052753;28;20186;-77
2023/07/13 03:53:26;;;;;;;3.37;2.17;;;;;;;;;;5034690;28;20201;-78
2023/07/13 03:55:53;;;;;;;4.13;2.13;;;;;;;;;;5034243;28;20256;-76
2023/07/13 03:58:32;;;;;;;2.27;2.03;;;;;;;;;;5052105;28;20590;-77
2023/07/13 04:01:05;;;;;;;3.47;2.00;;;;;;;;;;5038323;28;20262;-79
2023/07/13 04:03:32;;;;;;;2.90;2.20;;;;;;;;;;5032041;28;20174;-76
2023/07/13 04:06:00;;;;;;;2.77;2.00;;;;;;;;;;5030516;28;20249;-76
2023/07/13 04:08:27;;;;;;;3.23;2.00;;;;;;;;;;5031917;28;20183;-76
2023/07/13 04:10:53;;;;;;;2.60;2.20;;;;;;;;;;5031587;28;20801;-76
2023/07/13 04:13:19;;;;;;;2.70;2.10;;;;;;;;;;5032276;28;20690;-79
2023/07/13 04:15:46;;;;;;;3.37;2.20;;;;;;;;;;5042395;28;20268;-78
2023/07/13 04:18:12;;;;;;;2.87;2.23;;;;;;;;;;5039923;28;20217;-77
2023/07/13 04:20:38;;;;;;;3.30;2.03;;;;;;;;;;5031925;28;20772;-77
2023/07/13 04:23:04;;;;;;;5.07;2.43;;;;;;;;;;5034995;28;20182;-78
2023/07/13 04:25:30;;;;;;;2.30;2.10;;;;;;;;;;5047173;28;20198;-77
2023/07/13 04:27:57;;;;;;;3.33;2.50;;;;;;;;;;5039692;28;20186;-77
2023/07/13 04:30:23;;;;;;;3.63;2.23;;;;;;;;;;5051562;28;20185;-76
2023/07/13 04:32:51;;;;;;;3.43;2.30;;;;;;;;;;5050867;28;20178;-77
2023/07/13 04:35:18;;;;;;;6.23;2.20;;;;;;;;;;5050898;28;20281;-76
2023/07/13 04:37:44;;;;;;;3.20;2.13;;;;;;;;;;5051292;28;20260;-76
2023/07/13 04:40:12;;;;;;;3.87;2.40;;;;;;;;;;5050703;28;20231;-77
2023/07/13 04:42:38;;;;;;;5.77;2.10;;;;;;;;;;5050977;28;20663;-77
2023/07/13 04:45:06;;;;;;;3.70;2.50;;;;;;;;;;5051162;28;20783;-77
2023/07/13 04:47:32;;;;;;;4.37;2.40;;;;;;;;;;5048585;28;20182;-77
2023/07/13 04:49:58;;;;;;;4.57;2.60;;;;;;;;;;5031606;28;20253;-72
2023/07/13 04:52:25;;;;;;;2.73;2.40;;;;;;;;;;5040535;28;20189;-71
2023/07/13 04:54:51;;;;;;;5.57;2.87;;;;;;;;;;5051243;28;20339;-71
2023/07/13 04:57:17;;;;;;;5.17;2.70;;;;;;;;;;5050393;28;20185;-72
2023/07/13 04:59:43;;;;;;;2.50;2.30;;;;;;;;;;5039782;28;20194;-71
2023/07/13 05:02:10;;;;;;;4.33;2.37;;;;;;;;;;5031102;28;20213;-71
2023/07/13 05:04:37;;;;;;;3.70;2.80;;;;;;;;;;5028132;28;20208;-71
2023/07/13 05:07:03;;;;;;;4.63;2.53;;;;;;;;;;5011516;28;20171;-72
2023/07/13 05:09:29;;;;;;;3.40;2.17;;;;;;;;;;5013037;28;20190;-73
2023/07/13 05:11:55;;;;;;;3.97;2.27;;;;;;;;;;5031144;28;20202;-75
2023/07/13 05:14:21;;;;;;;3.77;2.40;;;;;;;;;;5030971;28;20228;-76
2023/07/13 05:16:47;;;;;;;3.93;2.60;;;;;;;;;;5041547;28;20243;-74
2023/07/13 05:19:13;;;;;;;6.20;3.03;;;;;;;;;;5051018;28;20208;-78
2023/07/13 05:21:41;;;;;;;5.53;3.03;;;;;;;;;;5050870;28;20588;-75
2023/07/13 05:24:07;;;;;;;4.37;3.07;;;;;;;;;;5050907;28;20221;-74
2023/07/13 05:26:33;;;;;;;3.13;2.80;;;;;;;;;;5050088;28;20304;-74
2023/07/13 05:28:59;;;;;;;3.83;2.80;;;;;;;;;;5050756;28;20549;-74
2023/07/13 05:31:25;;;;;;;5.27;2.73;;;;;;;;;;5051034;28;20178;-74
2023/07/13 05:33:51;;;;;;;3.93;2.60;;;;;;;;;;5050688;28;20291;-73
2023/07/13 05:36:18;;;;;;;4.33;2.40;;;;;;;;;;5049809;28;20524;-74
2023/07/13 05:38:44;;;;;;;3.57;2.63;;;;;;;;;;5045657;28;20186;-75
2023/07/13 05:41:10;;;;;;;3.37;2.30;;;;;;;;;;5030811;28;20210;-75
2023/07/13 05:43:36;;;;;;;3.63;2.70;;;;;;;;;;5030601;28;20270;-74
2023/07/13 05:46:02;;;;;;;2.90;2.40;;;;;;;;;;5028398;28;20175;-74
2023/07/13 05:48:28;;;;;;;3.30;2.37;;;;;;;;;;5031177;28;20174;-74
2023/07/13 05:50:54;;;;;;;2.60;2.37;;;;;;;;;;5034389;28;20167;-76
2023/07/13 05:53:20;;;;;;;3.97;2.90;;;;;;;;;;5034502;28;20208;-75
2023/07/13 05:55:47;;;;;;;6.23;2.90;;;;;;;;;;5030402;28;20186;-75
2023/07/13 05:58:14;;;;;;;3.60;2.47;;;;;;;;;;5052148;28;20217;-74
2023/07/13 06:00:40;;;;;;;2.83;2.50;;;;;;;;;;5039331;28;20257;-74
2023/07/13 06:03:07;;;;;;;5.07;2.60;;;;;;;;;;5033516;28;20187;-75
2023/07/13 06:05:34;;;;;;;5.50;2.40;;;;;;;;;;5033592;28;20222;-76
2023/07/13 06:08:00;;;;;;;5.20;2.23;;;;;;;;;;5034139;28;20171;-75
2023/07/13 06:10:26;;;;;;;2.67;2.00;;;;;;;;;;5034119;28;20269;-74
2023/07/13 06:12:53;;;;;;;5.93;2.37;;;;;;;;;;5034111;28;20181;-75
2023/07/13 06:15:19;;;;;;;3.17;2.23;;;;;;;;;;5033469;28;20344;-74
2023/07/13 06:17:46;;;;;;;4.37;2.50;;;;;;;;;;5034492;28;20186;-75
2023/07/13 06:20:12;;;;;;;3.93;2.63;;;;;;;;;;5037328;28;20206;-75
2023/07/13 06:22:38;;;;;;;3.70;3.13;;;;;;;;;;5030173;28;20175;-75
2023/07/13 06:25:05;;;;;;;4.00;2.93;;;;;;;;;;5029911;28;20203;-75
2023/07/13 06:27:31;;;;;;;3.90;2.87;;;;;;;;;;5032272;28;20179;-74
2023/07/13 06:29:57;;;;;;;5.87;2.60;;;;;;;;;;5033587;28;20240;-74
2023/07/13 06:32:24;;;;;;;3.27;2.30;;;;;;;;;;5033428;28;20248;-76
2023/07/13 06:34:51;;;;;;;2.77;2.40;;;;;;;;;;5032458;28;20276;-75
2023/07/13 06:37:18;;;;;;;3.93;2.90;;;;;;;;;;5033069;28;20194;-74
2023/07/13 06:39:44;;;;;;;4.63;3.03;;;;;;;;;;5033438;28;20665;-77
2023/07/13 06:42:11;;;;;;;5.73;3.07;;;;;;;;;;5033484;28;20202;-75
2023/07/13 06:44:37;;;;;;;3.80;2.30;;;;;;;;;;5031356;28;20210;-74
2023/07/13 06:47:03;;;;;;;3.37;2.50;;;;;;;;;;5031696;28;20634;-74
2023/07/13 06:49:29;;;;;;;3.10;2.20;;;;;;;;;;5033198;28;20186;-74
2023/07/13 06:51:55;;;;;;;3.50;2.43;;;;;;;;;;5033143;28;20241;-75
2023/07/13 06:54:21;;;;;;;3.03;2.20;;;;;;;;;;5032971;28;20218;-74
2023/07/13 06:56:47;;;;;;;3.83;2.20;;;;;;;;;;5032466;28;20190;-75
2023/07/13 06:59:13;;;;;;;3.40;2.10;;;;;;;;;;5030596;28;20278;-74
2023/07/13 07:01:40;;;;;;;3.67;1.87;;;;;;;;;;5032865;28;20194;-75
2023/07/13 07:04:06;;;;;;;4.13;1.80;;;;;;;;;;5032374;28;20194;-75
2023/07/13 07:06:32;;;;;;;3.13;1.90;;;;;;;;;;5032819;28;20183;-75
2023/07/13 07:08:58;;;;;;;5.40;1.83;;;;;;;;;;5032026;28;20205;-75
2023/07/13 07:11:25;;;;;;;3.73;1.70;;;;;;;;;;5023629;28;20190;-75
2023/07/13 07:13:52;;;;;;;3.90;1.83;;;;;;;;;;5020022;28;20198;-75
2023/07/13 07:16:19;;;;;;;2.90;2.00;;;;;;;;;;5032091;28;20207;-75
2023/07/13 07:18:45;;;;;;;4.33;1.80;;;;;;;;;;5032673;28;20831;-75
2023/07/13 07:21:12;;;;;;;3.03;1.73;;;;;;;;;;5028147;28;20210;-75
2023/07/13 07:23:38;;;;;;;5.37;1.80;;;;;;;;;;5029070;28;20179;-75
2023/07/13 07:26:04;;;;;;;3.10;1.70;;;;;;;;;;5031449;28;20179;-75
2023/07/13 07:28:30;;;;;;;2.87;1.70;;;;;;;;;;5032590;28;20178;-75
2023/07/13 07:30:57;;;;;;;3.83;1.70;;;;;;;;;;5032185;28;20198;-75
2023/07/13 07:33:24;;;;;;;3.33;1.57;;;;;;;;;;5032564;28;20882;-75
2023/07/13 07:35:50;;;;;;;3.03;1.63;;;;;;;;;;5030913;28;20225;-75
2023/07/13 07:38:16;;;;;;;4.13;1.70;;;;;;;;;;5032594;28;20178;-75
2023/07/13 07:40:42;;;;;;;4.20;1.83;;;;;;;;;;5031487;28;20230;-75
2023/07/13 07:43:09;;;;;;;2.50;1.70;;;;;;;;;;5032189;28;20244;-75
2023/07/13 07:45:37;;;;;;;2.27;1.43;;;;;;;;;;5032037;28;20222;-75
2023/07/13 07:48:04;;;;;;;4.53;1.60;;;;;;;;;;5032444;28;20175;-75
2023/07/13 07:50:30;;;;;;;1.83;1.50;;;;;;;;;;5029771;28;20179;-75
2023/07/13 07:52:56;;;;;;;3.17;1.50;;;;;;;;;;5035228;28;20190;-75
2023/07/13 07:55:23;;;;;;;3.93;1.80;;;;;;;;;;5029449;28;20681;-75
2023/07/13 07:57:49;;;;;;;2.87;1.73;;;;;;;;;;5030599;28;20179;-75
2023/07/13 08:00:16;;;;;;;3.60;1.70;;;;;;;;;;5030607;28;20182;-75
2023/07/13 08:02:44;;;;;;;2.33;1.57;;;;;;;;;;5028836;28;20567;-76
2023/07/13 08:05:10;;;;;;;3.73;1.90;;;;;;;;;;5031606;28;20198;-74
2023/07/13 08:07:40;;;;;;;2.50;1.97;;;;;;;;;;5028503;28;20175;-75
2023/07/13 08:10:07;;;;;;;4.43;2.03;;;;;;;;;;5039755;28;20190;-75
2023/07/13 08:12:40;;;;;;;4.20;1.90;;;;;;;;;;5031692;28;20649;-75
2023/07/13 08:15:07;;;;;;;2.60;1.50;;;;;;;;;;5031621;28;20202;-74
2023/07/13 08:17:33;;;;;;;3.50;1.83;;;;;;;;;;5024137;28;20261;-76
2023/07/13 08:19:59;;;;;;;1.83;1.50;;;;;;;;;;5039058;28;20306;-76
2023/07/13 08:22:25;;;;;;;2.40;1.63;;;;;;;;;;5051830;28;20930;-75
2023/07/13 08:24:55;;;;;;;2.90;1.50;;;;;;;;;;5051506;28;20193;-75
2023/07/13 08:27:22;;;;;;;2.73;1.80;;;;;;;;;;5051588;28;20174;-75
2023/07/13 08:29:49;;;;;;;3.27;1.70;;;;;;;;;;5051504;28;20185;-74
2023/07/13 08:32:15;;;;;;;3.43;1.60;;;;;;;;;;5028834;28;20202;-75
2023/07/13 08:34:41;;;;;;;4.33;1.50;;;;;;;;;;5025658;28;20232;-75
2023/07/13 08:37:09;;;;;;;6.40;1.57;;;;;;;;;;5028582;28;20844;-75
2023/07/13 08:39:35;;;;;;;5.57;1.80;;;;;;;;;;5031627;28;20551;-75
2023/07/13 08:42:04;;;;;;;3.63;1.60;;;;;;;;;;5031719;28;20750;-75
2023/07/13 08:44:40;;;;;;;4.10;1.40;;;;;;;;;;5031245;28;20260;-76
2023/07/13 08:47:07;;;;;;;2.70;1.40;;;;;;;;;;5035025;28;20561;-75
2023/07/13 08:49:33;;;;;;;4.13;1.70;;;;;;;;;;5038328;28;20580;-75
2023/07/13 08:52:07;;;;;;;2.40;1.60;;;;;;;;;;5034833;28;20189;-75
2023/07/13 08:54:36;;;;;;;3.20;1.63;;;;;;;;;;5030986;28;20252;-75
2023/07/13 08:57:10;;;;;;;5.13;1.90;;;;;;;;;;5030714;28;20187;-76
2023/07/13 08:59:36;;;;;;;4.63;1.80;;;;;;;;;;5022073;28;20260;-75
2023/07/13 09:02:02;;;;;;;3.87;1.63;;;;;;;;;;5031130;28;20199;-75
2023/07/13 09:04:31;;;;;;;6.07;1.80;;;;;;;;;;5030267;28;20222;-75
2023/07/13 09:07:12;;;;;;;4.60;1.77;;;;;;;;;;5019998;28;20187;-75
2023/07/13 09:09:51;;;;;;;4.63;1.93;;;;;;;;;;5012172;28;20191;-76
2023/07/13 09:12:28;;;;;;;3.20;1.53;;;;;;;;;;5011546;28;20191;-75
2023/07/13 09:14:56;;;;;;;4.00;1.60;;;;;;;;;;5011214;28;20678;-76
2023/07/13 09:17:32;;;;;;;3.80;1.53;;;;;;;;;;5022394;28;20185;-76
2023/07/13 09:20:09;;;;;;;2.80;1.50;;;;;;;;;;5030740;28;20767;-75
2023/07/13 09:22:38;;;;;;;2.60;1.50;;;;;;;;;;5033267;28;20211;-75
2023/07/13 09:25:21;;;;;;;1.80;1.40;;;;;;;;;;5031410;28;20199;-75
2023/07/13 09:27:48;;;;;;;9.60;1.93;;;;;;;;;;5034691;28;20593;-77
2023/07/13 09:30:14;;;;;;;2.83;1.50;;;;;;;;;;5035658;28;20763;-75
2023/07/13 09:32:43;;;;;;;8.97;1.80;;;;;;;;;;5034567;28;20180;-75
2023/07/13 09:35:17;;;;;;;2.87;1.33;;;;;;;;;;5034546;28;20308;-75
2023/07/13 09:37:45;;;;;;;2.23;1.40;;;;;;;;;;5034965;28;20258;-76
2023/07/13 09:40:16;;;;;;;2.50;1.60;;;;;;;;;;5031972;28;20266;-76
2023/07/13 09:42:42;;;;;;;4.10;1.70;;;;;;;;;;5034588;28;20735;-75
2023/07/13 09:45:09;;;;;;;2.80;1.67;;;;;;;;;;5034177;28;20343;-75
2023/07/13 09:47:39;;;;;;;3.67;1.40;;;;;;;;;;5033701;28;20271;-75
2023/07/13 09:50:16;;;;;;;2.97;1.70;;;;;;;;;;5043081;28;20175;-75
2023/07/13 09:52:47;;;;;;;2.70;1.50;;;;;;;;;;5034766;28;20170;-76
2023/07/13 09:55:34;;;;;;;2.47;1.70;;;;;;;;;;5033458;28;20196;-75
2023/07/13 09:58:05;;;;;;;4.37;1.57;;;;;;;;;;5042049;28;20186;-77
2023/07/13 10:00:31;;;;;;;3.77;1.60;;;;;;;;;;5046487;28;20190;-74
2023/07/13 10:03:15;;;;;;;3.47;1.50;;;;;;;;;;5034756;28;20198;-74
2023/07/13 10:05:42;;;;;;;3.47;1.77;;;;;;;;;;5047653;28;20194;-74
2023/07/13 10:08:22;;;;;;;3.40;1.53;;;;;;;;;;5037410;28;20177;-75
2023/07/13 10:10:58;;;;;;;2.77;1.60;;;;;;;;;;5027195;28;20193;-77
2023/07/13 10:13:29;;;;;;;2.80;1.60;;;;;;;;;;5034428;28;20812;-76
2023/07/13 10:15:56;;;;;;;4.57;1.80;;;;;;;;;;5033846;28;20700;-77
2023/07/13 10:18:22;;;;;;;4.17;1.60;;;;;;;;;;5034325;28;20249;-76
2023/07/13 10:20:49;;;;;;;3.73;1.60;;;;;;;;;;5026628;28;20207;-76
2023/07/13 10:23:22;;;;;;;4.10;1.60;;;;;;;;;;5047583;28;20178;-77
2023/07/13 10:25:48;;;;;;;4.03;1.40;;;;;;;;;;5033522;28;20186;-77
2023/07/13 10:28:23;;;;;;;2.53;1.40;;;;;;;;;;5028852;28;20171;-76
2023/07/13 10:30:50;;;;;;;3.17;1.30;;;;;;;;;;5024863;28;20235;-73
2023/07/13 10:33:16;;;;;;;2.37;1.40;;;;;;;;;;5034889;28;20187;-71
2023/07/13 10:35:43;;;;;;;2.03;1.20;;;;;;;;;;5033519;28;20214;-71
2023/07/13 10:38:14;;;;;;;4.53;1.40;;;;;;;;;;5033829;28;20186;-73
2023/07/13 10:40:42;;;;;;;1.60;1.40;;;;;;;;;;5033877;28;20588;-71
2023/07/13 10:43:16;;;;;;;2.03;1.40;;;;;;;;;;5043705;28;20201;-71
2023/07/13 10:45:42;;;;;;;4.37;1.50;;;;;;;;;;5026433;28;20206;-71
2023/07/13 10:48:12;;;;;;;2.73;1.27;;;;;;;;;;5033349;28;20177;-72
2023/07/13 10:50:39;;;;;;;2.20;1.40;;;;;;;;;;5037696;28;20654;-72
2023/07/13 10:53:22;;;;;;;1.83;1.13;;;;;;;;;;5021122;28;20669;-72
2023/07/13 10:55:51;;;;;;;2.73;1.40;;;;;;;;;;5033220;28;20208;-73
2023/07/13 10:58:20;;;;;;;4.60;1.47;;;;;;;;;;5037337;28;20201;-72
2023/07/13 11:00:51;;;;;;;3.13;1.57;;;;;;;;;;5027285;28;20215;-72
2023/07/13 11:03:19;;;;;;;4.13;1.40;;;;;;;;;;5031253;28;20214;-72
2023/07/13 11:05:48;;;;;;;4.83;1.17;;;;;;;;;;5032698;28;20206;-72
2023/07/13 11:08:14;;;;;;;2.50;1.50;;;;;;;;;;5033081;28;20187;-72
2023/07/13 11:10:50;;;;;;;3.27;1.50;;;;;;;;;;5040209;28;20186;-72
2023/07/13 11:13:35;;;;;;;2.87;1.40;;;;;;;;;;5031097;28;20193;-72
2023/07/13 11:16:01;;;;;;;2.03;1.30;;;;;;;;;;5031864;28;20190;-72
2023/07/13 11:18:27;;;;;;;3.60;1.50;;;;;;;;;;5030050;28;20190;-72
2023/07/13 11:21:13;;;;;;;2.97;1.50;;;;;;;;;;5028892;28;20763;-73
2023/07/13 11:23:42;;;;;;;4.33;1.63;;;;;;;;;;5033292;28;20182;-72
2023/07/13 11:26:28;;;;;;;3.87;1.57;;;;;;;;;;5034818;28;20185;-71
2023/07/13 11:28:55;;;;;;;2.30;1.50;;;;;;;;;;5025503;28;20222;-72
2023/07/13 11:31:22;;;;;;;2.00;1.37;;;;;;;;;;5034193;28;20193;-72
2023/07/13 11:33:53;;;;;;;1.90;1.37;;;;;;;;;;5029592;28;20203;-73
2023/07/13 11:36:22;;;;;;;2.43;1.47;;;;;;;;;;5044101;28;20188;-74
2023/07/13 11:39:02;;;;;;;2.73;1.27;;;;;;;;;;5032708;28;20183;-75
2023/07/13 11:41:31;;;;;;;2.97;1.50;;;;;;;;;;5012600;28;20241;-75
2023/07/13 11:44:26;;;;;;;2.23;1.70;;;;;;;;;;5030727;28;20214;-74
2023/07/13 11:47:00;;;;;;;3.83;1.63;;;;;;;;;;5019386;28;20190;-74
2023/07/13 11:49:27;;;;;;;2.77;1.80;;;;;;;;;;5031359;28;20184;-75
2023/07/13 11:51:54;;;;;;;4.10;1.30;;;;;;;;;;5032105;28;20247;-74
2023/07/13 11:54:23;;;;;;;6.20;1.50;;;;;;;;;;5032570;28;20234;-76
2023/07/13 11:56:50;;;;;;;3.93;1.50;;;;;;;;;;5031843;28;20179;-74
2023/07/13 11:59:16;;;;;;;2.07;1.60;;;;;;;;;;5031390;28;20285;-76
2023/07/13 12:01:44;;;;;;;3.27;1.67;;;;;;;;;;5031979;28;20225;-74
2023/07/13 12:04:21;;;;;;;3.57;1.47;;;;;;;;;;5031963;28;20226;-77
2023/07/13 12:06:47;;;;;;;2.10;1.33;;;;;;;;;;5031423;28;20946;-75
2023/07/13 12:09:19;;;;;;;5.80;1.50;;;;;;;;;;5031933;28;20182;-74
2023/07/13 12:11:45;;;;;;;2.27;1.60;;;;;;;;;;5032253;28;20273;-75
2023/07/13 12:14:18;;;;;;;2.20;1.50;;;;;;;;;;5031997;28;20281;-74
2023/07/13 12:16:45;;;;;;;3.17;1.20;;;;;;;;;;5030655;28;20217;-74
2023/07/13 12:19:20;;;;;;;3.63;1.30;;;;;;;;;;5046358;28;20190;-75
2023/07/13 12:21:46;;;;;;;3.47;1.70;;;;;;;;;;5016256;28;20787;-74
2023/07/13 12:24:16;;;;;;;1.77;1.50;;;;;;;;;;5031320;28;20206;-74
2023/07/13 12:26:43;;;;;;;3.60;1.60;;;;;;;;;;5041281;28;20586;-75
2023/07/13 12:29:15;;;;;;;2.03;1.30;;;;;;;;;;5036054;28;20299;-75
2023/07/13 12:31:44;;;;;;;2.30;1.40;;;;;;;;;;5024511;28;20187;-75
2023/07/13 12:34:14;;;;;;;3.17;1.40;;;;;;;;;;5028609;28;20206;-74
2023/07/13 12:36:51;;;;;;;2.80;1.33;;;;;;;;;;5033172;28;20182;-74
2023/07/13 12:39:19;;;;;;;1.90;1.40;;;;;;;;;;5032290;28;20662;-76
2023/07/13 12:41:46;;;;;;;2.30;1.50;;;;;;;;;;5030600;28;20250;-74
2023/07/13 12:44:13;;;;;;;6.13;1.70;;;;;;;;;;5031626;28;20276;-74
2023/07/13 12:46:40;;;;;;;3.70;1.40;;;;;;;;;;5030115;28;20217;-74
2023/07/13 12:49:07;;;;;;;4.07;1.70;;;;;;;;;;5031906;28;20198;-75
2023/07/13 12:51:33;;;;;;;3.07;1.70;;;;;;;;;;5031472;28;20706;-75
2023/07/13 12:54:11;;;;;;;3.10;1.70;;;;;;;;;;5030177;28;20229;-75
2023/07/13 12:56:37;;;;;;;4.73;1.57;;;;;;;;;;5020343;28;20186;-74
2023/07/13 12:59:05;;;;;;;3.87;1.60;;;;;;;;;;5031420;28;20182;-75
2023/07/13 13:01:34;;;;;;;4.40;3.50;;;;;;;;;;5035823;28;20294;-74
2023/07/13 13:04:06;;;;;;;8.80;2.20;;;;;;;;;;5028663;28;20205;-74
2023/07/13 13:06:35;;;;;;;5.27;1.70;;;;;;;;;;5030267;28;20274;-79
2023/07/13 13:09:01;;;;;;;3.33;1.47;;;;;;;;;;5027866;28;20175;-74
2023/07/13 13:11:28;;;;;;;4.17;1.70;;;;;;;;;;5016788;28;21000;-74
2023/07/13 13:13:54;;;;;;;3.20;1.47;;;;;;;;;;5009910;28;20206;-77
2023/07/13 13:16:26;;;;;;;1.70;1.40;;;;;;;;;;5017052;28;20256;-78
2023/07/13 13:18:54;;;;;;;2.60;1.70;;;;;;;;;;5017607;28;20209;-76
2023/07/13 13:21:20;;;;;;;7.30;1.80;;;;;;;;;;5016688;28;20214;-74
2023/07/13 13:23:47;;;;;;;7.33;1.63;;;;;;;;;;5014613;28;20621;-76
2023/07/13 13:26:15;;;;;;;10.07;1.80;;;;;;;;;;5016300;28;20186;-76
2023/07/13 13:28:43;;;;;;;3.33;1.60;;;;;;;;;;5015718;28;20185;-75
2023/07/13 13:31:13;;;;;;;3.90;1.40;;;;;;;;;;5015873;28;20684;-76
2023/07/13 13:33:43;;;;;;;5.67;1.57;;;;;;;;;;5009426;28;20197;-77
2023/07/13 13:36:15;;;;;;;2.50;1.40;;;;;;;;;;5012850;28;20819;-79
2023/07/13 13:38:41;;;;;;;3.87;1.60;;;;;;;;;;5015465;28;20614;-76
2023/07/13 13:41:10;;;;;;;4.03;1.60;;;;;;;;;;5017132;28;20206;-74
2023/07/13 13:43:36;;;;;;;3.13;1.73;;;;;;;;;;5016853;28;20194;-75
2023/07/13 13:46:02;;;;;;;5.53;1.80;;;;;;;;;;5015690;28;20174;-76
2023/07/13 13:48:36;;;;;;;3.83;1.60;;;;;;;;;;5017417;28;20181;-74
2023/07/13 13:51:13;;;;;;;3.03;1.70;;;;;;;;;;5021930;28;20626;-74
2023/07/13 13:53:39;;;;;;;5.30;1.40;;;;;;;;;;5017281;28;20272;-75
2023/07/13 13:56:05;;;;;;;3.00;1.47;;;;;;;;;;5008625;28;20206;-77
2023/07/13 13:58:32;;;;;;;3.47;1.53;;;;;;;;;;5017917;28;20197;-76
2023/07/13 14:00:58;;;;;;;3.37;1.60;;;;;;;;;;5025450;28;20308;-76
2023/07/13 14:03:25;;;;;;;2.93;1.70;;;;;;;;;;5017827;28;20190;-76
2023/07/13 14:05:52;;;;;;;3.43;1.47;;;;;;;;;;5023050;28;20198;-75
2023/07/13 14:08:21;;;;;;;3.60;1.60;;;;;;;;;;5024962;28;20325;-74
2023/07/13 14:10:50;;;;;;;3.27;1.50;;;;;;;;;;5032845;28;20281;-75
2023/07/13 14:13:26;;;;;;;1.73;1.43;;;;;;;;;;5034097;28;20727;-74
2023/07/13 14:15:52;;;;;;;2.70;1.57;;;;;;;;;;5033867;28;20194;-74
2023/07/13 14:18:18;;;;;;;3.00;1.57;;;;;;;;;;5025852;28;20194;-75
2023/07/13 14:20:45;;;;;;;4.60;1.70;;;;;;;;;;5030515;28;20238;-75
2023/07/13 14:23:13;;;;;;;2.87;1.40;;;;;;;;;;5032478;28;20233;-74
2023/07/13 14:25:39;;;;;;;5.77;1.70;;;;;;;;;;5031313;28;20209;-75
2023/07/13 14:28:14;;;;;;;4.10;1.50;;;;;;;;;;5033400;28;20169;-75
2023/07/13 14:30:41;;;;;;;2.07;1.40;;;;;;;;;;5033270;28;20178;-76
2023/07/13 14:33:10;;;;;;;2.83;1.47;;;;;;;;;;5037565;28;20178;-76
2023/07/13 14:35:37;;;;;;;3.07;1.50;;;;;;;;;;5028405;28;20206;-75
2023/07/13 14:38:04;;;;;;;2.73;1.53;;;;;;;;;;5031673;28;20194;-75
2023/07/13 14:40:31;;;;;;;2.37;1.50;;;;;;;;;;5036508;28;20722;-74
2023/07/13 14:42:58;;;;;;;2.00;1.47;;;;;;;;;;5045721;28;20662;-74
2023/07/13 14:45:24;;;;;;;2.40;1.60;;;;;;;;;;5053710;28;20265;-74
2023/07/13 14:47:51;;;;;;;3.47;1.50;;;;;;;;;;5053366;28;20178;-73